Jardine, Montana
Current Conditions -  °F | °C
As of 2:53 PM on Thursday 25 Dec 2014 (Local Time) from KLVM Reporting Station
Overcast Overcast  
Wind Chill: 17°   Ceiling: 3100
Heat Index: 24°   Visibility: 10mi
Dew Point: 18°   Wind: 6mph
Humidity: 77%   Direction: 100°E
Pressure: 29.88"   Gusts: NA
Location:  45.0924°N, 110.236°W
Report Text: KLVM 252153Z AUTO 10005KT 10SM OVC031 M04/M08 A2988 RMK AO2 SLP158 T10441078
Loading
Personal Weather Stations






























Interactive Weather Map New forecast layout! Learn more

10-Day Weather Forecast

Advertisements
Track Severe Weather on mobile